Terminal Aerodrome Forecast
Issued by NWS

Home | Current Version | Previous Version | Graphics & Text | Print | Product List | Glossary On
Versions: 1 2 3 4 5 6 7 8 9 10 11 12 13 14
000
FTUS43 KTOP 052300
TAFMHK
TAF
KMHK 052334Z 0600/0624 17007KT P6SM SKC
     FM060700 21008KT P6SM SCT120 WS008/23040KT
     FM061400 24011KT P6SM SKC=

USA.gov is the U.S. government's official web portal to all federal, state and local government web resources and services.